sensor_id;sensor_type;location;lat;lon;timestamp;pressure;altitude;pressure_sealevel;temperature;humidity
75051;BME280;63628;47.656;11.310;2023-03-01T00:02:13;95285.69;;;0.21;75.57
75051;BME280;63628;47.656;11.310;2023-03-01T00:04:39;95284.03;;;0.62;80.20
75051;BME280;63628;47.656;11.310;2023-03-01T00:07:07;95286.34;;;0.65;79.70
75051;BME280;63628;47.656;11.310;2023-03-01T00:09:35;95282.59;;;0.68;79.58
75051;BME280;63628;47.656;11.310;2023-03-01T00:12:03;95275.75;;;0.67;79.68
75051;BME280;63628;47.656;11.310;2023-03-01T00:14:29;95271.53;;;0.66;80.11
75051;BME280;63628;47.656;11.310;2023-03-01T00:16:56;95269.56;;;0.68;80.05
75051;BME280;63628;47.656;11.310;2023-03-01T00:19:23;95270.84;;;0.63;78.28
75051;BME280;63628;47.656;11.310;2023-03-01T00:21:49;95269.16;;;0.46;79.79
75051;BME280;63628;47.656;11.310;2023-03-01T00:24:17;95262.38;;;0.61;79.65
75051;BME280;63628;47.656;11.310;2023-03-01T00:26:44;95273.00;;;0.68;79.51
75051;BME280;63628;47.656;11.310;2023-03-01T00:29:11;95266.00;;;0.69;79.59
75051;BME280;63628;47.656;11.310;2023-03-01T00:31:37;95263.56;;;0.67;79.46
75051;BME280;63628;47.656;11.310;2023-03-01T00:34:05;95261.13;;;0.66;79.63
75051;BME280;63628;47.656;11.310;2023-03-01T00:36:33;95262.91;;;0.65;79.88
75051;BME280;63628;47.656;11.310;2023-03-01T00:39:01;95263.72;;;0.66;79.82
75051;BME280;63628;47.656;11.310;2023-03-01T00:41:30;95263.41;;;0.69;79.76
75051;BME280;63628;47.656;11.310;2023-03-01T00:43:57;95258.19;;;0.69;79.60
75051;BME280;63628;47.656;11.310;2023-03-01T00:46:26;95253.13;;;0.67;79.94
75051;BME280;63628;47.656;11.310;2023-03-01T00:48:53;95253.31;;;0.66;79.54
75051;BME280;63628;47.656;11.310;2023-03-01T00:51:22;95240.94;;;0.68;79.58
75051;BME280;63628;47.656;11.310;2023-03-01T00:53:51;95235.88;;;0.66;79.48
75051;BME280;63628;47.656;11.310;2023-03-01T00:56:19;95230.81;;;0.64;79.59
75051;BME280;63628;47.656;11.310;2023-03-01T00:58:47;95232.16;;;0.69;79.77
75051;BME280;63628;47.656;11.310;2023-03-01T01:01:16;95235.41;;;0.71;79.74
75051;BME280;63628;47.656;11.310;2023-03-01T01:03:47;95224.50;;;0.67;79.37
75051;BME280;63628;47.656;11.310;2023-03-01T01:06:19;95227.91;;;0.68;79.44
75051;BME280;63628;47.656;11.310;2023-03-01T01:08:47;95226.13;;;0.68;80.02
75051;BME280;63628;47.656;11.310;2023-03-01T01:11:14;95219.44;;;0.66;79.52
75051;BME280;63628;47.656;11.310;2023-03-01T01:13:43;95216.84;;;0.66;79.65
75051;BME280;63628;47.656;11.310;2023-03-01T01:16:11;95209.03;;;0.66;80.06
75051;BME280;63628;47.656;11.310;2023-03-01T01:18:38;95209.03;;;0.66;79.70
75051;BME280;63628;47.656;11.310;2023-03-01T01:21:06;95212.59;;;0.64;80.03
75051;BME280;63628;47.656;11.310;2023-03-01T01:23:33;95213.09;;;0.68;79.69
75051;BME280;63628;47.656;11.310;2023-03-01T01:26:05;95207.72;;;0.70;79.52
75051;BME280;63628;47.656;11.310;2023-03-01T01:28:31;95201.22;;;0.66;79.82
75051;BME280;63628;47.656;11.310;2023-03-01T01:30:58;95195.03;;;0.67;79.80
75051;BME280;63628;47.656;11.310;2023-03-01T01:33:26;95200.41;;;0.65;79.93
75051;BME280;63628;47.656;11.310;2023-03-01T01:35:53;95193.91;;;0.69;79.22
75051;BME280;63628;47.656;11.310;2023-03-01T01:38:20;95193.38;;;0.57;79.41
75051;BME280;63628;47.656;11.310;2023-03-01T01:40:48;95186.88;;;0.61;79.51
75051;BME280;63628;47.656;11.310;2023-03-01T01:43:20;95188.50;;;0.62;79.88
75051;BME280;63628;47.656;11.310;2023-03-01T01:45:48;95191.75;;;0.64;79.62
75051;BME280;63628;47.656;11.310;2023-03-01T01:48:18;95188.34;;;0.64;79.30
75051;BME280;63628;47.656;11.310;2023-03-01T01:50:53;95188.34;;;0.64;79.52
75051;BME280;63628;47.656;11.310;2023-03-01T01:53:21;95185.59;;;0.66;79.99
75051;BME280;63628;47.656;11.310;2023-03-01T01:55:51;95179.72;;;0.63;79.59
75051;BME280;63628;47.656;11.310;2023-03-01T01:58:21;95175.31;;;0.64;79.71
75051;BME280;63628;47.656;11.310;2023-03-01T02:00:48;95168.66;;;0.61;80.04
75051;BME280;63628;47.656;11.310;2023-03-01T02:03:18;95169.16;;;0.65;79.88
75051;BME280;63628;47.656;11.310;2023-03-01T02:05:51;95170.09;;;0.64;79.86
75051;BME280;63628;47.656;11.310;2023-03-01T02:08:23;95170.28;;;0.62;79.59
75051;BME280;63628;47.656;11.310;2023-03-01T02:10:51;95165.88;;;0.63;79.76
75051;BME280;63628;47.656;11.310;2023-03-01T02:13:19;95163.94;;;0.65;79.34
75051;BME280;63628;47.656;11.310;2023-03-01T02:15:46;95155.28;;;0.64;79.83
75051;BME280;63628;47.656;11.310;2023-03-01T02:18:14;95148.63;;;0.62;79.49
75051;BME280;63628;47.656;11.310;2023-03-01T02:20:54;95142.44;;;0.63;79.89
75051;BME280;63628;47.656;11.310;2023-03-01T02:23:23;95142.44;;;0.63;79.98
75051;BME280;63628;47.656;11.310;2023-03-01T02:25:54;95135.16;;;0.67;79.42
75051;BME280;63628;47.656;11.310;2023-03-01T02:28:26;95142.59;;;0.61;79.37
75051;BME280;63628;47.656;11.310;2023-03-01T02:30:53;95141.47;;;0.64;79.84
75051;BME280;63628;47.656;11.310;2023-03-01T02:33:39;95139.03;;;0.62;79.85
75051;BME280;63628;47.656;11.310;2023-03-01T02:36:09;95141.78;;;0.61;79.61
75051;BME280;63628;47.656;11.310;2023-03-01T02:38:37;95138.22;;;0.62;79.59
75051;BME280;63628;47.656;11.310;2023-03-01T02:41:05;95137.41;;;0.61;79.66
75051;BME280;63628;47.656;11.310;2023-03-01T02:43:34;95130.41;;;0.62;79.53
75051;BME280;63628;47.656;11.310;2023-03-01T02:46:06;95139.03;;;0.62;79.70
75051;BME280;63628;47.656;11.310;2023-03-01T02:48:41;95138.88;;;0.64;79.46
75051;BME280;63628;47.656;11.310;2023-03-01T02:51:21;95131.22;;;0.62;79.42
75051;BME280;63628;47.656;11.310;2023-03-01T02:53:56;95141.78;;;0.61;79.93
75051;BME280;63628;47.656;11.310;2023-03-01T02:56:25;95129.59;;;0.61;79.34
75051;BME280;63628;47.656;11.310;2023-03-01T02:58:54;95127.97;;;0.60;79.68
75051;BME280;63628;47.656;11.310;2023-03-01T03:01:21;95121.63;;;0.63;79.76
75051;BME280;63628;47.656;11.310;2023-03-01T03:03:48;95124.06;;;0.64;79.74
75051;BME280;63628;47.656;11.310;2023-03-01T03:06:14;95136.13;;;0.66;79.13
75051;BME280;63628;47.656;11.310;2023-03-01T03:08:41;95128.31;;;0.66;79.55
75051;BME280;63628;47.656;11.310;2023-03-01T03:11:08;95134.97;;;0.60;79.97
75051;BME280;63628;47.656;11.310;2023-03-01T03:13:34;95124.53;;;0.60;79.55
75051;BME280;63628;47.656;11.310;2023-03-01T03:16:02;95129.59;;;0.61;79.79
75051;BME280;63628;47.656;11.310;2023-03-01T03:18:30;95137.22;;;0.63;80.03
75051;BME280;63628;47.656;11.310;2023-03-01T03:20:56;95126.00;;;0.62;79.53
75051;BME280;63628;47.656;11.310;2023-03-01T03:23:23;95137.22;;;0.63;79.34
75051;BME280;63628;47.656;11.310;2023-03-01T03:25:50;95135.31;;;0.65;79.24
75051;BME280;63628;47.656;11.310;2023-03-01T03:28:17;95126.81;;;0.63;79.59
75051;BME280;63628;47.656;11.310;2023-03-01T03:30:44;95127.16;;;0.60;79.65
75051;BME280;63628;47.656;11.310;2023-03-01T03:33:12;95127.16;;;0.60;79.44
75051;BME280;63628;47.656;11.310;2023-03-01T03:35:42;95126.16;;;0.61;79.34
75051;BME280;63628;47.656;11.310;2023-03-01T03:38:10;95128.44;;;0.64;79.31
75051;BME280;63628;47.656;11.310;2023-03-01T03:40:43;95127.63;;;0.63;79.37
75051;BME280;63628;47.656;11.310;2023-03-01T03:43:12;95127.63;;;0.63;79.63
75051;BME280;63628;47.656;11.310;2023-03-01T03:45:40;95125.34;;;0.60;79.42
75051;BME280;63628;47.656;11.310;2023-03-01T03:48:08;95126.34;;;0.59;80.20
75051;BME280;63628;47.656;11.310;2023-03-01T03:50:40;95124.53;;;0.60;79.88
75051;BME280;63628;47.656;11.310;2023-03-01T03:53:08;95118.53;;;0.59;79.48
75051;BME280;63628;47.656;11.310;2023-03-01T03:55:36;95116.09;;;0.58;80.02
75051;BME280;63628;47.656;11.310;2023-03-01T03:58:09;95112.50;;;0.59;79.92
75051;BME280;63628;47.656;11.310;2023-03-01T04:00:38;95112.34;;;0.60;79.54
75051;BME280;63628;47.656;11.310;2023-03-01T04:03:05;95109.91;;;0.59;79.96
75051;BME280;63628;47.656;11.310;2023-03-01T04:05:32;95108.91;;;0.60;79.73
75051;BME280;63628;47.656;11.310;2023-03-01T04:08:00;95109.56;;;0.62;79.26
75051;BME280;63628;47.656;11.310;2023-03-01T04:10:31;95106.97;;;0.62;79.41
75051;BME280;63628;47.656;11.310;2023-03-01T04:12:58;95109.56;;;0.62;79.40
75051;BME280;63628;47.656;11.310;2023-03-01T04:15:25;95101.28;;;0.58;79.84
75051;BME280;63628;47.656;11.310;2023-03-01T04:17:54;95106.97;;;0.62;79.78
75051;BME280;63628;47.656;11.310;2023-03-01T04:20:22;95107.78;;;0.62;79.25
75051;BME280;63628;47.656;11.310;2023-03-01T04:22:52;95106.66;;;0.57;79.92
75051;BME280;63628;47.656;11.310;2023-03-01T04:25:20;95100.47;;;0.58;79.51
75051;BME280;63628;47.656;11.310;2023-03-01T04:27:47;95101.28;;;0.58;79.93
75051;BME280;63628;47.656;11.310;2023-03-01T04:30:14;95096.72;;;0.60;79.30
75051;BME280;63628;47.656;11.310;2023-03-01T04:32:40;95092.81;;;0.56;79.53
75051;BME280;63628;47.656;11.310;2023-03-01T04:35:08;95094.13;;;0.60;80.01
75051;BME280;63628;47.656;11.310;2023-03-01T04:37:35;95101.28;;;0.58;79.88
75051;BME280;63628;47.656;11.310;2023-03-01T04:40:01;95095.41;;;0.56;80.17
75051;BME280;63628;47.656;11.310;2023-03-01T04:42:39;95087.59;;;0.56;79.88
75051;BME280;63628;47.656;11.310;2023-03-01T04:45:07;95097.53;;;0.61;79.30
75051;BME280;63628;47.656;11.310;2023-03-01T04:47:40;95093.47;;;0.58;79.63
75051;BME280;63628;47.656;11.310;2023-03-01T04:50:08;95082.41;;;0.56;79.91
75051;BME280;63628;47.656;11.310;2023-03-01T04:52:35;95085.00;;;0.56;79.54
75051;BME280;63628;47.656;11.310;2023-03-01T04:55:02;95079.78;;;0.56;79.37
75051;BME280;63628;47.656;11.310;2023-03-01T04:57:30;95072.00;;;0.56;79.51
75051;BME280;63628;47.656;11.310;2023-03-01T04:59:58;95072.81;;;0.57;79.91
75051;BME280;63628;47.656;11.310;2023-03-01T05:02:25;95083.22;;;0.57;80.03
75051;BME280;63628;47.656;11.310;2023-03-01T05:04:51;95068.56;;;0.56;79.57
75051;BME280;63628;47.656;11.310;2023-03-01T05:07:18;95076.88;;;0.59;79.37
75051;BME280;63628;47.656;11.310;2023-03-01T05:09:48;95071.31;;;0.62;79.31
75051;BME280;63628;47.656;11.310;2023-03-01T05:12:14;95072.47;;;0.60;79.30
75051;BME280;63628;47.656;11.310;2023-03-01T05:14:41;95074.91;;;0.61;79.26
75051;BME280;63628;47.656;11.310;2023-03-01T05:17:09;95073.28;;;0.60;79.18
75051;BME280;63628;47.656;11.310;2023-03-01T05:19:36;95077.69;;;0.60;79.38
75051;BME280;63628;47.656;11.310;2023-03-01T05:22:02;95074.25;;;0.59;79.43
75051;BME280;63628;47.656;11.310;2023-03-01T05:24:34;95079.63;;;0.58;79.50
75051;BME280;63628;47.656;11.310;2023-03-01T05:27:01;95071.66;;;0.59;79.31
75051;BME280;63628;47.656;11.310;2023-03-01T05:29:30;95062.38;;;0.57;79.57
75051;BME280;63628;47.656;11.310;2023-03-01T05:31:58;95072.81;;;0.57;79.30
75051;BME280;63628;47.656;11.310;2023-03-01T05:34:27;95072.00;;;0.56;79.78
75051;BME280;63628;47.656;11.310;2023-03-01T05:36:55;95064.00;;;0.58;79.40
75051;BME280;63628;47.656;11.310;2023-03-01T05:39:22;95058.97;;;0.56;79.46
75051;BME280;63628;47.656;11.310;2023-03-01T05:41:52;95059.44;;;0.60;79.22
75051;BME280;63628;47.656;11.310;2023-03-01T05:44:19;95063.03;;;0.59;79.78
75051;BME280;63628;47.656;11.310;2023-03-01T05:46:45;95062.88;;;0.60;79.70
75051;BME280;63628;47.656;11.310;2023-03-01T05:49:12;95059.13;;;0.55;79.89
75051;BME280;63628;47.656;11.310;2023-03-01T05:51:41;95053.94;;;0.55;79.91
75051;BME280;63628;47.656;11.310;2023-03-01T05:54:08;95059.13;;;0.55;79.35
75051;BME280;63628;47.656;11.310;2023-03-01T05:56:35;95059.78;;;0.57;79.75
75051;BME280;63628;47.656;11.310;2023-03-01T05:59:03;95052.13;;;0.55;79.73
75051;BME280;63628;47.656;11.310;2023-03-01T06:01:31;95054.75;;;0.55;79.58
75051;BME280;63628;47.656;11.310;2023-03-01T06:03:58;95055.38;;;0.57;80.07
75051;BME280;63628;47.656;11.310;2023-03-01T06:06:24;95057.81;;;0.59;79.56
75051;BME280;63628;47.656;11.310;2023-03-01T06:08:55;95056.53;;;0.55;79.96
75051;BME280;63628;47.656;11.310;2023-03-01T06:11:22;95062.22;;;0.58;79.93
75051;BME280;63628;47.656;11.310;2023-03-01T06:13:48;95065.63;;;0.59;79.85
75051;BME280;63628;47.656;11.310;2023-03-01T06:16:15;95060.44;;;0.59;79.39
75051;BME280;63628;47.656;11.310;2023-03-01T06:18:42;95053.13;;;0.54;79.52
75051;BME280;63628;47.656;11.310;2023-03-01T06:21:08;95057.34;;;0.55;79.63
75051;BME280;63628;47.656;11.310;2023-03-01T06:23:35;95062.56;;;0.55;79.46
75051;BME280;63628;47.656;11.310;2023-03-01T06:26:06;95056.03;;;0.59;79.53
75051;BME280;63628;47.656;11.310;2023-03-01T06:28:34;95056.53;;;0.55;79.51
75051;BME280;63628;47.656;11.310;2023-03-01T06:31:01;95052.78;;;0.57;79.56
75051;BME280;63628;47.656;11.310;2023-03-01T06:33:27;95063.69;;;0.61;79.21
75051;BME280;63628;47.656;11.310;2023-03-01T06:35:54;95057.34;;;0.55;79.91
75051;BME280;63628;47.656;11.310;2023-03-01T06:38:22;95052.31;;;0.54;79.72
75051;BME280;63628;47.656;11.310;2023-03-01T06:40:52;95056.53;;;0.55;80.02
75051;BME280;63628;47.656;11.310;2023-03-01T06:43:21;95053.59;;;0.58;79.92
75051;BME280;63628;47.656;11.310;2023-03-01T06:45:47;95057.50;;;0.54;79.65
75051;BME280;63628;47.656;11.310;2023-03-01T06:48:14;95049.69;;;0.54;79.64
75051;BME280;63628;47.656;11.310;2023-03-01T06:50:41;95060.13;;;0.54;80.06
75051;BME280;63628;47.656;11.310;2023-03-01T06:53:08;95056.53;;;0.55;79.55
75051;BME280;63628;47.656;11.310;2023-03-01T06:55:34;95054.91;;;0.54;79.66
75051;BME280;63628;47.656;11.310;2023-03-01T06:58:02;95049.53;;;0.55;79.60
75051;BME280;63628;47.656;11.310;2023-03-01T07:00:31;95047.75;;;0.56;79.70
75051;BME280;63628;47.656;11.310;2023-03-01T07:02:58;95049.69;;;0.62;79.36
75051;BME280;63628;47.656;11.310;2023-03-01T07:05:25;95051.16;;;0.56;79.03
75051;BME280;63628;47.656;11.310;2023-03-01T07:07:53;95054.41;;;0.50;79.76
75051;BME280;63628;47.656;11.310;2023-03-01T07:10:20;95056.69;;;0.53;79.28
75051;BME280;63628;47.656;11.310;2023-03-01T07:12:46;95058.47;;;0.61;78.86
75051;BME280;63628;47.656;11.310;2023-03-01T07:15:13;95060.41;;;-0.06;79.31
75051;BME280;63628;47.656;11.310;2023-03-01T07:17:42;95059.69;;;-0.41;82.18
75051;BME280;63628;47.656;11.310;2023-03-01T07:20:11;95059.66;;;-0.49;82.93
75051;BME280;63628;47.656;11.310;2023-03-01T07:22:39;95059.81;;;-0.58;83.20
75051;BME280;63628;47.656;11.310;2023-03-01T07:25:06;95054.22;;;-0.21;83.56
75051;BME280;63628;47.656;11.310;2023-03-01T07:27:33;95051.88;;;-0.49;83.03
75051;BME280;63628;47.656;11.310;2023-03-01T07:30:00;95053.91;;;-0.10;82.73
75051;BME280;63628;47.656;11.310;2023-03-01T07:32:26;95050.81;;;-0.06;82.75
75051;BME280;63628;47.656;11.310;2023-03-01T07:34:54;95043.06;;;0.19;80.78
75051;BME280;63628;47.656;11.310;2023-03-01T07:37:21;95050.53;;;0.30;79.76
75051;BME280;63628;47.656;11.310;2023-03-01T07:39:48;95052.31;;;0.38;79.90
75051;BME280;63628;47.656;11.310;2023-03-01T07:42:14;95059.47;;;0.27;77.79
75051;BME280;63628;47.656;11.310;2023-03-01T07:44:41;95062.47;;;-0.76;81.29
75051;BME280;63628;47.656;11.310;2023-03-01T07:47:07;95070.34;;;-0.94;82.25
75051;BME280;63628;47.656;11.310;2023-03-01T07:49:34;95064.19;;;-0.59;83.06
75051;BME280;63628;47.656;11.310;2023-03-01T07:52:02;95058.59;;;-0.22;81.10
75051;BME280;63628;47.656;11.310;2023-03-01T07:54:29;95060.06;;;-0.11;80.67
75051;BME280;63628;47.656;11.310;2023-03-01T07:56:56;95058.81;;;0.17;80.40
75051;BME280;63628;47.656;11.310;2023-03-01T07:59:23;95060.63;;;0.33;80.26
75051;BME280;63628;47.656;11.310;2023-03-01T08:01:55;95064.34;;;0.39;79.74
75051;BME280;63628;47.656;11.310;2023-03-01T08:04:22;95059.81;;;0.41;79.92
75051;BME280;63628;47.656;11.310;2023-03-01T08:06:49;95065.97;;;0.40;79.75
75051;BME280;63628;47.656;11.310;2023-03-01T08:09:17;95046.78;;;0.41;79.93
75051;BME280;63628;47.656;11.310;2023-03-01T08:11:43;95043.19;;;0.42;80.38
75051;BME280;63628;47.656;11.310;2023-03-01T08:14:10;95045.66;;;0.43;79.63
75051;BME280;63628;47.656;11.310;2023-03-01T08:16:37;95042.88;;;0.45;79.93
75051;BME280;63628;47.656;11.310;2023-03-01T08:19:05;95040.28;;;0.45;79.60
75051;BME280;63628;47.656;11.310;2023-03-01T08:21:32;95050.53;;;0.46;80.05
75051;BME280;63628;47.656;11.310;2023-03-01T08:24:01;95050.53;;;0.46;79.70
75051;BME280;63628;47.656;11.310;2023-03-01T08:26:29;95046.94;;;0.47;79.58
75051;BME280;63628;47.656;11.310;2023-03-01T08:28:56;95041.25;;;0.52;79.76
75051;BME280;63628;47.656;11.310;2023-03-01T08:31:25;95042.22;;;0.51;79.66
75051;BME280;63628;47.656;11.310;2023-03-01T08:33:55;95038.63;;;0.52;79.46
75051;BME280;63628;47.656;11.310;2023-03-01T08:36:23;95031.81;;;0.51;79.74
75051;BME280;63628;47.656;11.310;2023-03-01T08:38:50;95034.25;;;0.52;79.74
75051;BME280;63628;47.656;11.310;2023-03-01T08:41:17;95041.06;;;0.53;79.20
75051;BME280;63628;47.656;11.310;2023-03-01T08:43:46;95033.44;;;0.52;79.67
75051;BME280;63628;47.656;11.310;2023-03-01T08:46:13;95033.59;;;0.50;80.10
75051;BME280;63628;47.656;11.310;2023-03-01T08:48:40;95037.66;;;0.53;79.79
75051;BME280;63628;47.656;11.310;2023-03-01T08:51:11;95032.47;;;0.53;80.21
75051;BME280;63628;47.656;11.310;2023-03-01T08:53:40;95032.47;;;0.53;79.70
75051;BME280;63628;47.656;11.310;2023-03-01T08:56:07;95031.47;;;0.54;80.06
75051;BME280;63628;47.656;11.310;2023-03-01T08:58:33;95021.88;;;0.54;79.71
75051;BME280;63628;47.656;11.310;2023-03-01T09:01:07;95019.09;;;0.56;79.80
75051;BME280;63628;47.656;11.310;2023-03-01T09:03:33;95019.91;;;0.56;79.52
75051;BME280;63628;47.656;11.310;2023-03-01T09:06:01;95015.03;;;0.53;79.54
75051;BME280;63628;47.656;11.310;2023-03-01T09:08:28;95017.97;;;0.58;79.45
75051;BME280;63628;47.656;11.310;2023-03-01T09:10:55;95015.31;;;0.91;77.20
75051;BME280;63628;47.656;11.310;2023-03-01T09:13:22;95011.91;;;0.82;77.74
75051;BME280;63628;47.656;11.310;2023-03-01T09:15:53;94998.59;;;0.61;79.03
75051;BME280;63628;47.656;11.310;2023-03-01T09:18:21;95002.81;;;0.62;79.93
75051;BME280;63628;47.656;11.310;2023-03-01T09:20:48;94996.47;;;0.64;79.07
75051;BME280;63628;47.656;11.310;2023-03-01T09:23:14;94990.47;;;2.42;78.57
75051;BME280;63628;47.656;11.310;2023-03-01T09:25:41;94989.09;;;2.98;74.58
75051;BME280;63628;47.656;11.310;2023-03-01T09:28:07;94994.03;;;1.18;76.67
75051;BME280;63628;47.656;11.310;2023-03-01T09:30:43;94983.78;;;0.78;78.60
75051;BME280;63628;47.656;11.310;2023-03-01T09:33:10;94989.31;;;0.75;78.82
75051;BME280;63628;47.656;11.310;2023-03-01T09:35:42;94977.91;;;1.77;82.80
75051;BME280;63628;47.656;11.310;2023-03-01T09:38:13;94964.31;;;3.81;71.81
75051;BME280;63628;47.656;11.310;2023-03-01T09:40:42;94968.91;;;3.07;70.77
75051;BME280;63628;47.656;11.310;2023-03-01T09:43:15;94980.75;;;1.90;75.73
75051;BME280;63628;47.656;11.310;2023-03-01T09:45:48;94980.97;;;2.93;69.42
75051;BME280;63628;47.656;11.310;2023-03-01T09:48:18;94986.50;;;1.63;75.53
75051;BME280;63628;47.656;11.310;2023-03-01T09:50:46;94985.28;;;1.73;75.59
75051;BME280;63628;47.656;11.310;2023-03-01T09:53:15;94983.00;;;1.47;76.51
75051;BME280;63628;47.656;11.310;2023-03-01T09:55:45;94975.53;;;1.05;78.44
75051;BME280;63628;47.656;11.310;2023-03-01T09:58:37;94966.28;;;2.92;72.82
75051;BME280;63628;47.656;11.310;2023-03-01T10:01:18;94972.84;;;1.21;77.43
75051;BME280;63628;47.656;11.310;2023-03-01T10:04:00;94984.81;;;1.00;78.50
75051;BME280;63628;47.656;11.310;2023-03-01T10:06:32;94973.31;;;2.92;73.63
75051;BME280;63628;47.656;11.310;2023-03-01T10:09:03;94970.38;;;3.81;68.81
75051;BME280;63628;47.656;11.310;2023-03-01T10:11:36;94976.75;;;3.07;70.22
75051;BME280;63628;47.656;11.310;2023-03-01T10:14:07;94980.00;;;1.58;75.35
75051;BME280;63628;47.656;11.310;2023-03-01T10:16:48;94972.41;;;1.10;77.76
75051;BME280;63628;47.656;11.310;2023-03-01T10:19:20;94967.66;;;2.36;72.82
75051;BME280;63628;47.656;11.310;2023-03-01T10:21:50;94975.53;;;1.67;77.76
75051;BME280;63628;47.656;11.310;2023-03-01T10:24:18;94977.38;;;1.58;75.93
75051;BME280;63628;47.656;11.310;2023-03-01T10:26:53;94978.50;;;1.64;76.88
75051;BME280;63628;47.656;11.310;2023-03-01T10:29:24;94977.41;;;1.19;77.31
75051;BME280;63628;47.656;11.310;2023-03-01T10:31:53;94979.44;;;1.01;78.64
75051;BME280;63628;47.656;11.310;2023-03-01T10:34:26;94975.56;;;1.36;77.09
75051;BME280;63628;47.656;11.310;2023-03-01T10:36:58;94982.09;;;1.32;77.19
75051;BME280;63628;47.656;11.310;2023-03-01T10:39:27;94979.13;;;1.04;78.82
75051;BME280;63628;47.656;11.310;2023-03-01T10:41:58;94973.25;;;1.02;78.33
75051;BME280;63628;47.656;11.310;2023-03-01T10:44:43;94967.47;;;3.04;70.46
75051;BME280;63628;47.656;11.310;2023-03-01T10:47:18;94964.81;;;3.19;68.70
75051;BME280;63628;47.656;11.310;2023-03-01T10:49:58;94961.41;;;1.84;74.58
75051;BME280;63628;47.656;11.310;2023-03-01T10:52:29;94955.38;;;2.59;71.18
75051;BME280;63628;47.656;11.310;2023-03-01T10:54:57;94955.94;;;2.84;69.30
75051;BME280;63628;47.656;11.310;2023-03-01T10:57:30;94954.25;;;1.78;74.62
75051;BME280;63628;47.656;11.310;2023-03-01T11:00:24;94947.47;;;2.82;70.09
75051;BME280;63628;47.656;11.310;2023-03-01T11:03:03;94937.38;;;2.79;70.37
75051;BME280;63628;47.656;11.310;2023-03-01T11:05:35;94940.69;;;2.06;73.00
75051;BME280;63628;47.656;11.310;2023-03-01T11:08:03;94933.75;;;1.75;78.11
75051;BME280;63628;47.656;11.310;2023-03-01T11:10:32;94926.34;;;2.39;70.20
75051;BME280;63628;47.656;11.310;2023-03-01T11:13:08;94926.06;;;2.19;72.58
75051;BME280;63628;47.656;11.310;2023-03-01T11:15:35;94928.97;;;2.54;68.43
75051;BME280;63628;47.656;11.310;2023-03-01T11:18:02;94934.50;;;1.84;72.02
75051;BME280;63628;47.656;11.310;2023-03-01T11:20:40;94926.84;;;2.05;70.98
75051;BME280;63628;47.656;11.310;2023-03-01T11:23:12;94921.31;;;2.52;70.16
75051;BME280;63628;47.656;11.310;2023-03-01T11:25:41;94918.38;;;2.03;71.06
75051;BME280;63628;47.656;11.310;2023-03-01T11:28:13;94913.78;;;2.05;69.80
75051;BME280;63628;47.656;11.310;2023-03-01T11:30:46;94909.22;;;2.07;71.23
75051;BME280;63628;47.656;11.310;2023-03-01T11:33:37;94910.25;;;2.50;69.61
75051;BME280;63628;47.656;11.310;2023-03-01T11:36:10;94903.94;;;2.45;69.98
75051;BME280;63628;47.656;11.310;2023-03-01T11:38:41;94905.88;;;2.13;71.00
75051;BME280;63628;47.656;11.310;2023-03-01T11:41:14;94902.31;;;2.44;69.40
75051;BME280;63628;47.656;11.310;2023-03-01T11:43:49;94896.28;;;2.73;69.27
75051;BME280;63628;47.656;11.310;2023-03-01T11:49:40;94900.78;;;2.94;70.35
75051;BME280;63628;47.656;11.310;2023-03-01T11:52:19;94890.41;;;2.56;70.46
75051;BME280;63628;47.656;11.310;2023-03-01T11:55:00;94888.38;;;2.66;72.12
75051;BME280;63628;47.656;11.310;2023-03-01T11:57:46;94889.16;;;2.96;70.37
75051;BME280;63628;47.656;11.310;2023-03-01T12:00:35;94882.88;;;2.61;71.96
75051;BME280;63628;47.656;11.310;2023-03-01T12:03:26;94884.94;;;2.51;71.74
75051;BME280;63628;47.656;11.310;2023-03-01T12:06:15;94882.59;;;2.71;71.81
75051;BME280;63628;47.656;11.310;2023-03-01T12:08:58;94885.84;;;2.73;74.01
75051;BME280;63628;47.656;11.310;2023-03-01T12:11:41;94889.25;;;2.88;71.90
75051;BME280;63628;47.656;11.310;2023-03-01T12:17:20;94899.16;;;2.19;71.46
75051;BME280;63628;47.656;11.310;2023-03-01T12:20:05;94883.56;;;2.84;72.35
75051;BME280;63628;47.656;11.310;2023-03-01T12:22:50;94873.69;;;2.65;71.75
75051;BME280;63628;47.656;11.310;2023-03-01T12:25:31;94873.75;;;2.57;72.10
75051;BME280;63628;47.656;11.310;2023-03-01T12:28:11;94871.13;;;1.98;72.65
75051;BME280;63628;47.656;11.310;2023-03-01T12:30:57;94872.69;;;2.37;72.85
75051;BME280;63628;47.656;11.310;2023-03-01T12:33:36;94865.19;;;2.04;72.59
75051;BME280;63628;47.656;11.310;2023-03-01T12:36:23;94862.97;;;2.31;72.60
75051;BME280;63628;47.656;11.310;2023-03-01T12:39:01;94864.63;;;1.94;73.30
75051;BME280;63628;47.656;11.310;2023-03-01T12:41:47;94861.59;;;2.05;74.29
75051;BME280;63628;47.656;11.310;2023-03-01T12:44:31;94869.50;;;1.97;73.51
75051;BME280;63628;47.656;11.310;2023-03-01T12:47:11;94860.44;;;2.08;73.51
75051;BME280;63628;47.656;11.310;2023-03-01T12:49:41;94862.19;;;1.92;74.16
75051;BME280;63628;47.656;11.310;2023-03-01T12:52:14;94859.63;;;2.22;72.50
75051;BME280;63628;47.656;11.310;2023-03-01T12:54:42;94858.47;;;2.10;73.01
75051;BME280;63628;47.656;11.310;2023-03-01T12:57:14;94854.59;;;2.06;72.98
75051;BME280;63628;47.656;11.310;2023-03-01T12:59:51;94858.84;;;1.84;73.39
75051;BME280;63628;47.656;11.310;2023-03-01T13:02:31;94867.22;;;1.94;73.87
75051;BME280;63628;47.656;11.310;2023-03-01T13:05:15;94871.84;;;2.07;73.73
75051;BME280;63628;47.656;11.310;2023-03-01T13:07:52;94871.25;;;2.34;73.03
75051;BME280;63628;47.656;11.310;2023-03-01T13:10:24;94873.84;;;2.19;73.41
75051;BME280;63628;47.656;11.310;2023-03-01T13:13:01;94886.16;;;2.11;73.45
75051;BME280;63628;47.656;11.310;2023-03-01T13:15:32;94879.44;;;2.16;73.42
75051;BME280;63628;47.656;11.310;2023-03-01T13:18:01;94875.31;;;2.37;72.75
75051;BME280;63628;47.656;11.310;2023-03-01T13:20:46;94869.97;;;2.01;72.95
75051;BME280;63628;47.656;11.310;2023-03-01T13:23:24;94863.50;;;2.11;72.89